Current Weather Conditions: station NFBF1

sailwx.info

Wind from 360 at 12 knots gusting 14

Air temperature 21.4° C

Last reported at 2015-Mar-28 19:54 UTC.
Time now 2015-Mar-28 22:18 UTC

Location: N 25°05' W 081°05'.
View on Google Maps.

See reports from other nearby stations

  
Tides and Currents Weather Stations Pressure Air Temp Water Temp Dewpoint Dewpoint Depression Visibility Wind Speed Wind Dir Waves Ship Positions
date/time (UTC)wind fromknots sea level pressurealtimeterstation pressurevisibilityair tempwater tempwave heightnotes
2015-Mar-28 19:54 360 12 gusting 14 21.4
2015-Mar-28 19:48 340 13 gusting 16 21.4
2015-Mar-28 19:42 340 13 gusting 16 21.3
2015-Mar-28 19:36 350 12 gusting 16 21.3
2015-Mar-28 19:30 340 13 gusting 15 21.3
2015-Mar-28 19:24 360 13 gusting 18 21.4
2015-Mar-28 19:18 360 12 gusting 16 21.4
2015-Mar-28 19:12 340 13 gusting 16 21.2
2015-Mar-28 19:06 350 12 gusting 15 21.3
2015-Mar-28 19:00 360 11 gusting 14 21.2
2015-Mar-28 18:54 350 11 gusting 15 21.3
2015-Mar-28 18:48 350 11 gusting 14 21.4
2015-Mar-28 17:54 020 9 gusting 14 21.5
2015-Mar-28 17:48 030 6 gusting 9 21.5
2015-Mar-28 16:54 070 9 gusting 12 20.1
2015-Mar-28 16:48 040 9 gusting 14 20.5
2015-Mar-28 16:42 040 8 gusting 12 20.5
2015-Mar-28 16:36 030 7 gusting 11 20.3
2015-Mar-28 16:30 030 9 gusting 14 20.1
2015-Mar-28 16:24 040 10 gusting 14 20.2
2015-Mar-28 16:18 030 10 gusting 14 20.0
2015-Mar-28 16:12 020 13 gusting 18 20.1
2015-Mar-28 16:06 030 12 gusting 17 20.1
2015-Mar-28 16:00 030 11 gusting 17 20.0
2015-Mar-28 15:54 030 9 gusting 12 19.8
2015-Mar-28 15:48 030 10 gusting 14 19.8
2015-Mar-28 14:54 030 13 gusting 17 19.1
2015-Mar-28 14:48 030 12 gusting 16 19.1
2015-Mar-28 13:54 030 15 gusting 19 18.6
2015-Mar-28 13:48 030 15 gusting 18 18.6
2015-Mar-28 13:42 030 14 gusting 17 18.5
2015-Mar-28 13:36 030 13 gusting 15 18.6
2015-Mar-28 13:30 030 13 gusting 15 18.4
2015-Mar-28 13:24 030 13 gusting 17 18.5
2015-Mar-28 13:18 030 14 gusting 16 18.4
2015-Mar-28 13:12 020 14 gusting 17 18.5
2015-Mar-28 13:06 020 14 gusting 16 18.5
2015-Mar-28 13:00 020 14 gusting 17 18.4
2015-Mar-28 12:54 030 15 gusting 17 18.5
2015-Mar-28 12:48 020 16 gusting 19 18.5
2015-Mar-28 11:54 020 17 gusting 20 19.0
2015-Mar-28 11:48 020 16 gusting 20 18.9
2015-Mar-28 10:54 030 16 gusting 19 19.2
2015-Mar-28 10:48 030 14 gusting 19 19.3
2015-Mar-28 10:42 020 15 gusting 19 19.4
2015-Mar-28 10:36 020 15 gusting 19 19.4
2015-Mar-28 10:30 020 15 gusting 18 19.4
2015-Mar-28 10:24 020 14 gusting 18 19.7
2015-Mar-28 10:18 020 15 gusting 17 19.6
2015-Mar-28 10:12 020 16 gusting 20 19.8
2015-Mar-28 10:06 020 17 gusting 20 19.9
2015-Mar-28 10:00 020 18 gusting 20 20.0
2015-Mar-28 09:54 020 18 gusting 20 20.2
2015-Mar-28 09:48 020 17 gusting 19 20.4
2015-Mar-28 08:54 020 17 gusting 20 21.9
2015-Mar-28 08:48 010 18 gusting 23 22.3
2015-Mar-28 07:54 340 18 gusting 20 23.7
2015-Mar-28 07:48 340 17 gusting 20 23.8
2015-Mar-28 07:42 340 18 gusting 22 23.9
2015-Mar-28 07:36 340 19 gusting 20 23.9
2015-Mar-28 07:30 340 19 gusting 22 23.8
2015-Mar-28 07:24 340 20 gusting 23 24.0
2015-Mar-28 07:18 350 20 gusting 25 24.0
2015-Mar-28 07:12 340 20 gusting 24 24.0
2015-Mar-28 07:06 340 20 gusting 24 24.2
2015-Mar-28 07:00 350 20 gusting 25 24.2
2015-Mar-28 06:54 340 20 gusting 23 24.3
2015-Mar-28 06:48 340 20 gusting 25 24.5
2015-Mar-28 06:42 340 20 gusting 25 24.4
2015-Mar-28 06:36 340 20 gusting 23 24.4
2015-Mar-28 06:30 340 20 gusting 24 24.4
2015-Mar-28 06:24 320 17 gusting 22 24.6
2015-Mar-28 06:18 320 17 gusting 20 24.7
2015-Mar-28 06:12 320 17 gusting 20 24.6
2015-Mar-28 06:06 320 16 gusting 20 24.8
2015-Mar-28 06:00 310 15 gusting 20 24.4
2015-Mar-28 05:54 310 16 gusting 20 24.5
2015-Mar-28 05:48 320 18 gusting 23 24.6
2015-Mar-28 04:54 320 18 gusting 20 24.3
2015-Mar-28 04:48 310 17 gusting 19 24.2
2015-Mar-28 03:54 300 14 gusting 17 24.3
2015-Mar-28 03:48 300 14 gusting 17 24.2
2015-Mar-28 02:54 290 15 gusting 19 24.2
2015-Mar-28 02:48 290 16 gusting 20 24.2
2015-Mar-28 02:42 290 15 gusting 18 24.2
2015-Mar-28 02:36 300 15 gusting 17 24.1
2015-Mar-28 02:30 290 13 gusting 16 24.1
2015-Mar-28 02:24 290 15 gusting 17 24.2
2015-Mar-28 02:18 290 14 gusting 17 24.2
2015-Mar-28 02:12 290 15 gusting 18 24.0
2015-Mar-28 02:06 280 16 gusting 19 24.0
2015-Mar-28 02:00 290 18 gusting 20 24.3
2015-Mar-28 01:54 300 18 gusting 23 24.6
2015-Mar-28 01:48 310 20 gusting 24 24.3
2015-Mar-28 01:42 320 20 gusting 24 24.3
2015-Mar-28 01:36 320 18 gusting 22 24.2
2015-Mar-28 01:30 320 22 gusting 25 24.2
2015-Mar-28 01:24 310 22 gusting 27 24.3
2015-Mar-28 01:18 320 20 gusting 26 24.5
2015-Mar-28 01:12 330 22 gusting 27 24.3
2015-Mar-28 01:06 340 22 gusting 26 24.1
2015-Mar-28 01:00 330 24 gusting 27 23.5
2015-Mar-28 00:54 320 25 gusting 29 24.1
2015-Mar-28 00:48 320 23 gusting 27 24.4
2015-Mar-27 23:30 330 27 gusting 35 23.1
2015-Mar-27 23:24 340 27 gusting 35 23.1
2015-Mar-27 23:18 350 27 gusting 38 23.6
2015-Mar-27 23:12 350 26 gusting 32 23.9
2015-Mar-27 23:06 340 25 gusting 27 24.1
2015-Mar-27 23:00 340 24 gusting 30 24.2
2015-Mar-27 22:54 340 25 gusting 30 24.2
2015-Mar-27 22:48 340 23 gusting 26 24.2
2015-Mar-27 21:54 270 15 gusting 17 27.7
2015-Mar-27 21:48 270 16 gusting 18 27.8
2015-Mar-27 20:54 260 15 gusting 18 28.0
2015-Mar-27 20:48 260 16 gusting 18 28.0
2015-Mar-27 19:54 230 17 gusting 19 27.9
2015-Mar-27 19:48 230 16 gusting 20 28.0
2015-Mar-27 19:42 230 18 gusting 20 28.0
2015-Mar-27 19:36 230 17 gusting 20 27.9
2015-Mar-27 19:30 230 16 gusting 19 27.9
2015-Mar-27 19:24 230 17 gusting 20 28.0
2015-Mar-27 19:18 230 18 gusting 20 27.9
2015-Mar-27 19:12 230 18 gusting 22 27.9
2015-Mar-27 19:06 220 17 gusting 20 27.7
2015-Mar-27 19:00 220 17 gusting 20 27.7
2015-Mar-27 18:54 220 17 gusting 19 27.6
2015-Mar-27 18:48 220 17 gusting 19 27.7
2015-Mar-27 17:54 230 16 gusting 19 27.7
2015-Mar-27 17:48 230 16 gusting 19 27.8
2015-Mar-27 17:42 240 15 gusting 19 27.8
2015-Mar-27 17:36 240 15 gusting 17 27.6
2015-Mar-27 17:30 240 13 gusting 17 27.4
2015-Mar-27 17:24 240 12 gusting 14 27.4
2015-Mar-27 17:18 240 12 gusting 14 27.4
2015-Mar-27 17:12 240 11 gusting 13 27.3
2015-Mar-27 17:06 240 11 gusting 13 27.2
2015-Mar-27 17:00 240 10 gusting 11 27.1
2015-Mar-27 16:54 240 11 gusting 13 27.0
2015-Mar-27 16:48 240 10 gusting 12 27.0
2015-Mar-27 16:42 240 9 gusting 11 27.0
2015-Mar-27 16:36 260 10 gusting 11 27.0
2015-Mar-27 16:30 250 10 gusting 11 27.0
2015-Mar-27 16:24 250 10 gusting 12 27.0
2015-Mar-27 16:18 260 10 gusting 12 27.0
2015-Mar-27 16:12 260 10 gusting 12 27.0
2015-Mar-27 16:06 260 10 gusting 13 27.0
2015-Mar-27 16:00 260 10 gusting 11 27.0
2015-Mar-27 15:54 260 10 gusting 12 27.0
2015-Mar-27 15:48 260 9 gusting 11 27.0
2015-Mar-27 14:54 260 10 gusting 12 27.1
2015-Mar-27 14:48 260 11 gusting 12 27.1
2015-Mar-27 13:54 250 11 gusting 12 27.1
2015-Mar-27 13:48 240 11 gusting 13 27.1
2015-Mar-27 13:42 240 12 gusting 14 27.1
2015-Mar-27 13:36 240 12 gusting 14 27.1
2015-Mar-27 13:30 250 11 gusting 13 27.1
2015-Mar-27 13:24 250 11 gusting 13 27.1
2015-Mar-27 13:18 250 11 gusting 13 27.1
2015-Mar-27 13:12 250 11 gusting 14 27.1
2015-Mar-27 13:06 250 11 gusting 13 27.1
2015-Mar-27 13:00 250 12 gusting 13 27.0
2015-Mar-27 12:54 250 12 gusting 14 27.1
2015-Mar-27 12:48 250 13 gusting 14 27.1
2015-Mar-27 11:54 260 12 gusting 14 27.0
2015-Mar-27 11:48 250 13 gusting 14 27.0
2015-Mar-27 10:54 250 13 gusting 15 27.0
2015-Mar-27 10:48 240 12 gusting 15 27.0
2015-Mar-27 10:42 240 12 gusting 15 27.0
2015-Mar-27 10:36 240 13 gusting 16 27.0
2015-Mar-27 10:30 240 13 gusting 15 26.9
2015-Mar-27 10:24 230 12 gusting 14 27.0
2015-Mar-27 10:18 230 12 gusting 14 27.0
2015-Mar-27 10:12 240 13 gusting 14 27.0
2015-Mar-27 10:06 230 12 gusting 14 27.0
2015-Mar-27 10:00 230 13 gusting 15 27.0
2015-Mar-27 09:54 230 13 gusting 15 27.0
2015-Mar-27 09:48 230 13 gusting 14 27.1
2015-Mar-27 08:54 230 14 gusting 16 27.2
2015-Mar-27 08:48 240 14 gusting 16 27.2
2015-Mar-27 07:54 220 15 gusting 17 27.2
2015-Mar-27 07:48 210 15 gusting 18 27.2
2015-Mar-27 07:42 210 14 gusting 16 27.3
2015-Mar-27 07:36 210 15 gusting 16 27.3
2015-Mar-27 07:30 210 14 gusting 15 27.3
2015-Mar-27 07:24 200 14 gusting 16 27.3
2015-Mar-27 07:18 200 13 gusting 17 27.3
2015-Mar-27 07:12 210 14 gusting 16 27.4
2015-Mar-27 07:06 210 14 gusting 16 27.4
2015-Mar-27 07:00 210 14 gusting 16 27.4
2015-Mar-27 06:54 200 14 gusting 16 27.4
2015-Mar-27 06:48 200 14 gusting 16 27.4
2015-Mar-27 05:54 190 14 gusting 16 27.3
2015-Mar-27 05:48 190 14 gusting 16 27.3
2015-Mar-27 04:54 180 15 gusting 17 27.4
2015-Mar-27 04:48 180 14 gusting 16 27.5
2015-Mar-27 04:42 180 14 gusting 17 27.5
2015-Mar-27 04:36 180 14 gusting 17 27.5
2015-Mar-27 04:30 180 15 gusting 17 27.5
2015-Mar-27 04:24 190 15 gusting 16 27.6
2015-Mar-27 04:18 190 15 gusting 17 27.7
2015-Mar-27 04:12 190 15 gusting 18 27.7
2015-Mar-27 04:06 190 14 gusting 17 27.8
2015-Mar-27 04:00 190 14 gusting 17 27.7
2015-Mar-27 03:54 180 14 gusting 16 27.8
2015-Mar-27 03:48 180 14 gusting 17 27.8
2015-Mar-27 03:42 190 14 gusting 17 27.8
2015-Mar-27 03:36 190 14 gusting 16 27.7
2015-Mar-27 03:30 180 13 gusting 15 27.7
2015-Mar-27 03:24 180 13 gusting 15 27.7
2015-Mar-27 03:18 190 12 gusting 15 27.7
2015-Mar-27 03:12 180 11 gusting 13 27.8
2015-Mar-27 03:06 180 10 gusting 12 27.8
2015-Mar-27 03:00 170 10 gusting 12 27.8
2015-Mar-27 02:54 170 9 gusting 11 27.8
2015-Mar-27 02:48 170 9 gusting 12 27.8
2015-Mar-27 01:54 170 11 gusting 12 27.6
2015-Mar-27 01:48 170 11 gusting 12 27.6
2015-Mar-27 00:54 170 12 gusting 14 27.4
2015-Mar-27 00:48 160 11 gusting 13 27.5
2015-Mar-26 23:30 160 10 gusting 12 27.5
2015-Mar-26 23:24 170 11 gusting 12 27.5
2015-Mar-26 23:18 170 11 gusting 13 27.5
2015-Mar-26 23:12 170 10 gusting 13 27.6
2015-Mar-26 23:06 170 11 gusting 13 27.6
2015-Mar-26 23:00 170 11 gusting 14 27.6